sensor_id;sensor_type;location;lat;lon;timestamp;pressure;altitude;pressure_sealevel;temperature;humidity
6680;BME280;3376;42.664;23.346;2022-10-04T00:02:14;94734.00;;;11.42;nan
6680;BME280;3376;42.664;23.346;2022-10-04T00:04:46;94776.50;;;11.63;nan
6680;BME280;3376;42.664;23.346;2022-10-04T00:07:20;94771.16;;;11.65;nan
6680;BME280;3376;42.664;23.346;2022-10-04T00:09:51;94765.38;;;11.55;nan
6680;BME280;3376;42.664;23.346;2022-10-04T00:12:22;94773.56;;;11.66;nan
6680;BME280;3376;42.664;23.346;2022-10-04T00:14:52;94747.91;;;11.49;nan
6680;BME280;3376;42.664;23.346;2022-10-04T00:17:21;94770.16;;;11.66;nan
6680;BME280;3376;42.664;23.346;2022-10-04T00:19:52;94767.56;;;11.66;nan
6680;BME280;3376;42.664;23.346;2022-10-04T00:22:21;94771.63;;;11.60;nan
6680;BME280;3376;42.664;23.346;2022-10-04T00:25:14;94760.66;;;11.58;nan
6680;BME280;3376;42.664;23.346;2022-10-04T00:31:18;94756.59;;;11.56;nan
6680;BME280;3376;42.664;23.346;2022-10-04T00:33:47;94758.38;;;11.55;nan
6680;BME280;3376;42.664;23.346;2022-10-04T00:36:39;94751.88;;;11.59;nan
6680;BME280;3376;42.664;23.346;2022-10-04T00:39:15;94743.25;;;11.59;nan
6680;BME280;3376;42.664;23.346;2022-10-04T00:41:53;94739.88;;;11.58;nan
6680;BME280;3376;42.664;23.346;2022-10-04T00:44:27;94668.78;;;11.16;nan
6680;BME280;3376;42.664;23.346;2022-10-04T00:46:56;94734.50;;;11.60;nan
6680;BME280;3376;42.664;23.346;2022-10-04T00:49:28;94723.13;;;11.61;nan
6680;BME280;3376;42.664;23.346;2022-10-04T00:52:02;94713.72;;;11.45;nan
6680;BME280;3376;42.664;23.346;2022-10-04T00:54:35;94721.69;;;11.44;nan
6680;BME280;3376;42.664;23.346;2022-10-04T00:57:08;94708.44;;;11.39;nan
6680;BME280;3376;42.664;23.346;2022-10-04T00:59:39;94713.69;;;11.31;nan
6680;BME280;3376;42.664;23.346;2022-10-04T01:02:14;94702.59;;;11.22;nan
6680;BME280;3376;42.664;23.346;2022-10-04T01:04:46;94721.31;;;11.32;nan
6680;BME280;3376;42.664;23.346;2022-10-04T01:07:18;94700.00;;;11.22;nan
6680;BME280;3376;42.664;23.346;2022-10-04T01:09:51;94689.56;;;11.08;nan
6680;BME280;3376;42.664;23.346;2022-10-04T01:12:31;94721.81;;;11.28;nan
6680;BME280;3376;42.664;23.346;2022-10-04T01:15:04;94717.78;;;11.25;nan
6680;BME280;3376;42.664;23.346;2022-10-04T01:17:32;94724.00;;;11.16;nan
6680;BME280;3376;42.664;23.346;2022-10-04T01:20:00;94728.41;;;11.16;nan
6680;BME280;3376;42.664;23.346;2022-10-04T01:22:37;94727.25;;;11.18;nan
6680;BME280;3376;42.664;23.346;2022-10-04T01:25:05;94725.19;;;11.14;nan
6680;BME280;3376;42.664;23.346;2022-10-04T01:27:35;94716.69;;;11.20;nan
6680;BME280;3376;42.664;23.346;2022-10-04T01:30:04;94710.25;;;11.16;nan
6680;BME280;3376;42.664;23.346;2022-10-04T01:32:33;94685.41;;;10.99;nan
6680;BME280;3376;42.664;23.346;2022-10-04T01:35:01;94717.13;;;11.09;nan
6680;BME280;3376;42.664;23.346;2022-10-04T01:37:28;94708.91;;;10.97;nan
6680;BME280;3376;42.664;23.346;2022-10-04T01:39:56;94710.09;;;10.95;nan
6680;BME280;3376;42.664;23.346;2022-10-04T01:42:28;94704.63;;;10.90;nan
6680;BME280;3376;42.664;23.346;2022-10-04T01:45:00;94715.28;;;10.95;nan
6680;BME280;3376;42.664;23.346;2022-10-04T01:47:32;94710.09;;;10.95;nan
6680;BME280;3376;42.664;23.346;2022-10-04T01:50:02;94710.09;;;10.95;nan
6680;BME280;3376;42.664;23.346;2022-10-04T01:52:34;94722.97;;;11.03;nan
6680;BME280;3376;42.664;23.346;2022-10-04T01:55:11;94716.53;;;10.99;nan
6680;BME280;3376;42.664;23.346;2022-10-04T01:57:41;94706.16;;;10.76;nan
6680;BME280;3376;42.664;23.346;2022-10-04T02:00:11;94675.25;;;10.75;nan
6680;BME280;3376;42.664;23.346;2022-10-04T02:02:41;94714.00;;;10.91;nan
6680;BME280;3376;42.664;23.346;2022-10-04T02:05:12;94651.16;;;10.43;nan
6680;BME280;3376;42.664;23.346;2022-10-04T02:07:42;94719.06;;;10.84;nan
6680;BME280;3376;42.664;23.346;2022-10-04T02:10:17;94731.50;;;10.89;nan
6680;BME280;3376;42.664;23.346;2022-10-04T02:12:47;94726.31;;;10.89;nan
6680;BME280;3376;42.664;23.346;2022-10-04T02:15:16;94733.34;;;10.80;nan
6680;BME280;3376;42.664;23.346;2022-10-04T02:17:45;94741.09;;;10.80;nan
6680;BME280;3376;42.664;23.346;2022-10-04T02:20:16;94746.47;;;10.79;nan
6680;BME280;3376;42.664;23.346;2022-10-04T02:22:45;94743.88;;;10.79;nan
6680;BME280;3376;42.664;23.346;2022-10-04T02:25:18;94741.00;;;10.74;nan
6680;BME280;3376;42.664;23.346;2022-10-04T02:27:46;94723.38;;;10.69;nan
6680;BME280;3376;42.664;23.346;2022-10-04T02:30:13;94713.38;;;10.58;nan
6680;BME280;3376;42.664;23.346;2022-10-04T02:32:41;94742.75;;;10.73;nan
6680;BME280;3376;42.664;23.346;2022-10-04T02:35:25;94702.38;;;10.56;nan
6680;BME280;3376;42.664;23.346;2022-10-04T02:38:00;94734.53;;;10.69;nan
6680;BME280;3376;42.664;23.346;2022-10-04T02:40:32;94734.94;;;10.58;nan
6680;BME280;3376;42.664;23.346;2022-10-04T02:43:05;94748.00;;;10.65;nan
6680;BME280;3376;42.664;23.346;2022-10-04T02:45:41;94756.25;;;10.68;nan
6680;BME280;3376;42.664;23.346;2022-10-04T02:48:36;94715.44;;;10.40;nan
6680;BME280;3376;42.664;23.346;2022-10-04T02:51:13;94748.75;;;10.74;nan
6680;BME280;3376;42.664;23.346;2022-10-04T02:53:49;94668.50;;;10.04;nan
6680;BME280;3376;42.664;23.346;2022-10-04T02:56:19;94770.50;;;10.64;nan
6680;BME280;3376;42.664;23.346;2022-10-04T02:58:48;94756.25;;;10.68;nan
6680;BME280;3376;42.664;23.346;2022-10-04T03:01:24;94766.44;;;10.70;nan
6680;BME280;3376;42.664;23.346;2022-10-04T03:03:53;94752.41;;;10.56;nan
6680;BME280;3376;42.664;23.346;2022-10-04T03:06:22;94762.38;;;10.76;nan
6680;BME280;3376;42.664;23.346;2022-10-04T03:08:56;94746.56;;;10.62;nan
6680;BME280;3376;42.664;23.346;2022-10-04T03:11:28;94748.66;;;10.67;nan
6680;BME280;3376;42.664;23.346;2022-10-04T03:13:58;94737.22;;;10.53;nan
6680;BME280;3376;42.664;23.346;2022-10-04T03:16:26;94779.97;;;10.80;nan
6680;BME280;3376;42.664;23.346;2022-10-04T03:18:55;94737.56;;;10.50;nan
6680;BME280;3376;42.664;23.346;2022-10-04T03:21:23;94766.72;;;10.75;nan
6680;BME280;3376;42.664;23.346;2022-10-04T03:23:52;94782.63;;;10.72;nan
6680;BME280;3376;42.664;23.346;2022-10-04T03:26:27;94739.88;;;10.45;nan
6680;BME280;3376;42.664;23.346;2022-10-04T03:28:55;94783.25;;;10.74;nan
6680;BME280;3376;42.664;23.346;2022-10-04T03:31:23;94758.25;;;10.58;nan
6680;BME280;3376;42.664;23.346;2022-10-04T03:33:53;94790.75;;;10.69;nan
6680;BME280;3376;42.664;23.346;2022-10-04T03:36:22;94745.69;;;10.39;nan
6680;BME280;3376;42.664;23.346;2022-10-04T03:38:52;94785.56;;;10.69;nan
6680;BME280;3376;42.664;23.346;2022-10-04T03:41:22;94789.75;;;10.70;nan
6680;BME280;3376;42.664;23.346;2022-10-04T03:43:52;94788.94;;;10.69;nan
6680;BME280;3376;42.664;23.346;2022-10-04T03:46:20;94789.94;;;10.68;nan
6680;BME280;3376;42.664;23.346;2022-10-04T03:48:50;94792.81;;;10.74;nan
6680;BME280;3376;42.664;23.346;2022-10-04T03:51:21;94799.44;;;10.76;nan
6680;BME280;3376;42.664;23.346;2022-10-04T03:53:49;94791.22;;;10.73;nan
6680;BME280;3376;42.664;23.346;2022-10-04T03:56:19;94799.44;;;10.76;nan
6680;BME280;3376;42.664;23.346;2022-10-04T03:58:48;94784.09;;;10.66;nan
6680;BME280;3376;42.664;23.346;2022-10-04T04:01:35;94802.81;;;10.85;nan
6680;BME280;3376;42.664;23.346;2022-10-04T04:04:12;94806.38;;;10.84;nan
6680;BME280;3376;42.664;23.346;2022-10-04T04:06:49;94789.41;;;10.73;nan
6680;BME280;3376;42.664;23.346;2022-10-04T04:09:22;94799.41;;;10.84;nan
6680;BME280;3376;42.664;23.346;2022-10-04T04:11:53;94802.66;;;10.78;nan
6680;BME280;3376;42.664;23.346;2022-10-04T04:14:24;94805.09;;;10.80;nan
6680;BME280;3376;42.664;23.346;2022-10-04T04:16:54;94823.91;;;10.74;nan
6680;BME280;3376;42.664;23.346;2022-10-04T04:19:42;94826.50;;;10.74;nan
6680;BME280;3376;42.664;23.346;2022-10-04T04:22:14;94801.94;;;10.61;nan
6680;BME280;3376;42.664;23.346;2022-10-04T04:24:42;94820.38;;;10.66;nan
6680;BME280;3376;42.664;23.346;2022-10-04T04:27:10;94815.53;;;10.63;nan
6680;BME280;3376;42.664;23.346;2022-10-04T04:29:43;94815.88;;;10.60;nan
6680;BME280;3376;42.664;23.346;2022-10-04T04:32:16;94824.91;;;10.64;nan
6680;BME280;3376;42.664;23.346;2022-10-04T04:34:49;94822.31;;;10.64;nan
6680;BME280;3376;42.664;23.346;2022-10-04T04:37:17;94830.25;;;10.63;nan
6680;BME280;3376;42.664;23.346;2022-10-04T04:39:48;94826.88;;;10.62;nan
6680;BME280;3376;42.664;23.346;2022-10-04T04:42:21;94831.25;;;10.62;nan
6680;BME280;3376;42.664;23.346;2022-10-04T04:44:53;94840.13;;;10.68;nan
6680;BME280;3376;42.664;23.346;2022-10-04T04:47:28;94799.25;;;10.47;nan
6680;BME280;3376;42.664;23.346;2022-10-04T04:49:57;94808.28;;;10.59;nan
6680;BME280;3376;42.664;23.346;2022-10-04T04:52:28;94841.69;;;10.77;nan
6680;BME280;3376;42.664;23.346;2022-10-04T04:54:55;94838.78;;;10.80;nan
6680;BME280;3376;42.664;23.346;2022-10-04T04:57:23;94825.38;;;10.68;nan
6680;BME280;3376;42.664;23.346;2022-10-04T04:59:54;94834.09;;;10.83;nan
6680;BME280;3376;42.664;23.346;2022-10-04T05:02:29;94847.75;;;11.00;nan
6680;BME280;3376;42.664;23.346;2022-10-04T05:05:19;94833.50;;;11.04;nan
6680;BME280;3376;42.664;23.346;2022-10-04T05:07:47;94834.75;;;11.08;nan
6680;BME280;3376;42.664;23.346;2022-10-04T05:10:31;94844.78;;;11.11;nan
6680;BME280;3376;42.664;23.346;2022-10-04T05:12:59;94843.00;;;11.11;nan
6680;BME280;3376;42.664;23.346;2022-10-04T05:15:31;94847.50;;;11.40;nan
6680;BME280;3376;42.664;23.346;2022-10-04T05:18:01;94845.81;;;11.55;nan
6680;BME280;3376;42.664;23.346;2022-10-04T05:20:29;94842.31;;;11.70;nan
6680;BME280;3376;42.664;23.346;2022-10-04T05:22:58;94837.53;;;11.97;nan
6680;BME280;3376;42.664;23.346;2022-10-04T05:25:28;94836.19;;;12.01;nan
6680;BME280;3376;42.664;23.346;2022-10-04T05:27:58;94816.31;;;11.93;nan
6680;BME280;3376;42.664;23.346;2022-10-04T05:30:36;94833.00;;;12.13;nan
6680;BME280;3376;42.664;23.346;2022-10-04T05:33:10;94861.84;;;12.18;nan
6680;BME280;3376;42.664;23.346;2022-10-04T05:35:43;94865.94;;;12.13;nan
6680;BME280;3376;42.664;23.346;2022-10-04T05:38:15;94863.34;;;12.13;nan
6680;BME280;3376;42.664;23.346;2022-10-04T05:40:55;94869.91;;;12.23;nan
6680;BME280;3376;42.664;23.346;2022-10-04T05:43:34;94878.34;;;12.40;nan
6680;BME280;3376;42.664;23.346;2022-10-04T05:46:21;94691.81;;;11.48;nan
6680;BME280;3376;42.664;23.346;2022-10-04T05:48:53;94684.84;;;11.63;nan
6680;BME280;3376;42.664;23.346;2022-10-04T05:51:23;94884.09;;;12.93;nan
6680;BME280;3376;42.664;23.346;2022-10-04T05:53:50;94883.38;;;12.99;nan
6680;BME280;3376;42.664;23.346;2022-10-04T05:56:32;94880.97;;;12.83;nan
6680;BME280;3376;42.664;23.346;2022-10-04T05:59:14;94896.75;;;12.96;nan
6680;BME280;3376;42.664;23.346;2022-10-04T06:01:53;94898.81;;;12.86;nan
6680;BME280;3376;42.664;23.346;2022-10-04T06:04:44;94908.16;;;13.10;nan
6680;BME280;3376;42.664;23.346;2022-10-04T06:07:21;94906.06;;;13.20;nan
6680;BME280;3376;42.664;23.346;2022-10-04T06:10:18;94907.06;;;13.69;nan
6680;BME280;3376;42.664;23.346;2022-10-04T06:12:55;94915.25;;;14.08;nan
6680;BME280;3376;42.664;23.346;2022-10-04T06:18:41;94909.78;;;14.52;nan
6680;BME280;3376;42.664;23.346;2022-10-04T06:21:19;94928.75;;;14.67;nan
6680;BME280;3376;42.664;23.346;2022-10-04T06:23:51;94921.22;;;14.51;nan
6680;BME280;3376;42.664;23.346;2022-10-04T06:26:21;94932.19;;;14.47;nan
6680;BME280;3376;42.664;23.346;2022-10-04T06:28:54;94921.03;;;14.53;nan
6680;BME280;3376;42.664;23.346;2022-10-04T06:34:52;94933.75;;;14.96;nan
6680;BME280;3376;42.664;23.346;2022-10-04T06:37:48;94918.38;;;15.08;nan
6680;BME280;3376;42.664;23.346;2022-10-04T06:40:44;94936.13;;;15.25;nan
6680;BME280;3376;42.664;23.346;2022-10-04T06:43:44;94920.81;;;15.57;nan
6680;BME280;3376;42.664;23.346;2022-10-04T06:46:21;94941.81;;;15.96;nan
6680;BME280;3376;42.664;23.346;2022-10-04T06:49:07;94948.88;;;15.89;nan
6680;BME280;3376;42.664;23.346;2022-10-04T06:51:49;94947.84;;;15.90;nan
6680;BME280;3376;42.664;23.346;2022-10-04T06:54:33;94947.97;;;15.62;nan
6680;BME280;3376;42.664;23.346;2022-10-04T07:00:12;94939.59;;;14.71;nan
6680;BME280;3376;42.664;23.346;2022-10-04T07:02:45;94939.94;;;14.61;nan
6680;BME280;3376;42.664;23.346;2022-10-04T07:05:18;94946.41;;;14.65;nan
6680;BME280;3376;42.664;23.346;2022-10-04T07:07:54;94951.09;;;15.10;nan
6680;BME280;3376;42.664;23.346;2022-10-04T07:10:36;94929.19;;;15.39;nan
6680;BME280;3376;42.664;23.346;2022-10-04T07:13:14;94957.25;;;15.30;nan
6680;BME280;3376;42.664;23.346;2022-10-04T07:15:47;94920.47;;;14.91;nan
6680;BME280;3376;42.664;23.346;2022-10-04T07:18:20;94917.53;;;14.67;nan
6680;BME280;3376;42.664;23.346;2022-10-04T07:20:51;94957.88;;;15.05;nan
6680;BME280;3376;42.664;23.346;2022-10-04T07:23:28;94960.38;;;15.19;nan
6680;BME280;3376;42.664;23.346;2022-10-04T07:26:01;94931.84;;;14.77;nan
6680;BME280;3376;42.664;23.346;2022-10-04T07:28:32;94962.84;;;14.66;nan
6680;BME280;3376;42.664;23.346;2022-10-04T07:31:22;94907.47;;;14.15;nan
6680;BME280;3376;42.664;23.346;2022-10-04T07:33:54;94977.47;;;14.39;nan
6680;BME280;3376;42.664;23.346;2022-10-04T07:36:26;94925.03;;;14.06;nan
6680;BME280;3376;42.664;23.346;2022-10-04T07:38:57;94974.06;;;14.39;nan
6680;BME280;3376;42.664;23.346;2022-10-04T07:41:30;94967.88;;;14.40;nan
6680;BME280;3376;42.664;23.346;2022-10-04T07:44:03;94937.50;;;14.11;nan
6680;BME280;3376;42.664;23.346;2022-10-04T07:46:43;94977.25;;;14.19;nan
6680;BME280;3376;42.664;23.346;2022-10-04T07:49:13;94990.59;;;14.10;nan
6680;BME280;3376;42.664;23.346;2022-10-04T07:51:51;94987.13;;;14.03;nan
6680;BME280;3376;42.664;23.346;2022-10-04T07:54:26;94993.44;;;13.94;nan
6680;BME280;3376;42.664;23.346;2022-10-04T07:57:05;94986.56;;;13.72;nan
6680;BME280;3376;42.664;23.346;2022-10-04T07:59:39;94978.81;;;13.78;nan
6680;BME280;3376;42.664;23.346;2022-10-04T08:02:17;94940.78;;;13.42;nan
6680;BME280;3376;42.664;23.346;2022-10-04T08:04:53;94995.81;;;13.74;nan
6680;BME280;3376;42.664;23.346;2022-10-04T08:07:31;94996.00;;;13.73;nan
6680;BME280;3376;42.664;23.346;2022-10-04T08:10:07;94981.56;;;13.70;nan
6680;BME280;3376;42.664;23.346;2022-10-04T08:12:50;94957.16;;;13.57;nan
6680;BME280;3376;42.664;23.346;2022-10-04T08:15:33;94987.34;;;13.87;nan
6680;BME280;3376;42.664;23.346;2022-10-04T08:18:07;95001.16;;;14.02;nan
6680;BME280;3376;42.664;23.346;2022-10-04T08:20:43;94973.09;;;14.04;nan
6680;BME280;3376;42.664;23.346;2022-10-04T08:23:22;94950.88;;;13.87;nan
6680;BME280;3376;42.664;23.346;2022-10-04T08:25:56;94992.63;;;14.29;nan
6680;BME280;3376;42.664;23.346;2022-10-04T08:28:36;94984.94;;;14.70;nan
6680;BME280;3376;42.664;23.346;2022-10-04T08:31:31;94993.31;;;15.20;nan
6680;BME280;3376;42.664;23.346;2022-10-04T08:34:15;94988.66;;;15.44;nan
6680;BME280;3376;42.664;23.346;2022-10-04T08:36:55;94874.75;;;14.95;nan
6680;BME280;3376;42.664;23.346;2022-10-04T08:39:47;94858.22;;;14.82;nan
6680;BME280;3376;42.664;23.346;2022-10-04T08:46:00;94975.31;;;16.85;nan
6680;BME280;3376;42.664;23.346;2022-10-04T08:55:13;94978.47;;;17.46;nan
6680;BME280;3376;42.664;23.346;2022-10-04T08:58:04;94972.63;;;17.24;nan
6680;BME280;3376;42.664;23.346;2022-10-04T09:00:49;94967.28;;;16.93;nan
6680;BME280;3376;42.664;23.346;2022-10-04T09:03:55;94963.03;;;17.12;nan
6680;BME280;3376;42.664;23.346;2022-10-04T09:06:39;94934.63;;;17.02;nan
6680;BME280;3376;42.664;23.346;2022-10-04T09:09:51;94969.97;;;17.57;nan
6680;BME280;3376;42.664;23.346;2022-10-04T09:12:41;94976.56;;;17.73;nan
6680;BME280;3376;42.664;23.346;2022-10-04T09:15:17;94949.63;;;17.97;nan
6680;BME280;3376;42.664;23.346;2022-10-04T09:17:53;94949.91;;;17.82;nan
6680;BME280;3376;42.664;23.346;2022-10-04T09:20:28;94962.66;;;17.66;nan
6680;BME280;3376;42.664;23.346;2022-10-04T09:23:11;94958.56;;;17.83;nan
6680;BME280;3376;42.664;23.346;2022-10-04T09:26:01;94958.03;;;17.68;nan
6680;BME280;3376;42.664;23.346;2022-10-04T09:35:08;94976.31;;;19.05;nan
6680;BME280;3376;42.664;23.346;2022-10-04T09:37:48;94979.59;;;19.61;nan
6680;BME280;3376;42.664;23.346;2022-10-04T09:40:38;94964.59;;;19.50;nan
6680;BME280;3376;42.664;23.346;2022-10-04T09:43:24;94975.50;;;19.05;nan
6680;BME280;3376;42.664;23.346;2022-10-04T09:46:04;94976.28;;;18.62;nan
6680;BME280;3376;42.664;23.346;2022-10-04T09:48:40;94852.09;;;17.44;nan
6680;BME280;3376;42.664;23.346;2022-10-04T09:51:35;94977.13;;;17.81;nan
6680;BME280;3376;42.664;23.346;2022-10-04T09:54:18;94978.28;;;17.92;nan
6680;BME280;3376;42.664;23.346;2022-10-04T09:57:14;94968.22;;;17.89;nan
6680;BME280;3376;42.664;23.346;2022-10-04T10:03:11;94969.88;;;19.01;nan
6680;BME280;3376;42.664;23.346;2022-10-04T10:06:10;94964.25;;;19.40;nan
6680;BME280;3376;42.664;23.346;2022-10-04T10:08:45;94961.97;;;19.50;nan
6680;BME280;3376;42.664;23.346;2022-10-04T10:11:23;94977.88;;;19.55;nan
6680;BME280;3376;42.664;23.346;2022-10-04T10:17:30;94988.53;;;19.60;nan
6680;BME280;3376;42.664;23.346;2022-10-04T10:20:16;94973.63;;;19.12;nan
6680;BME280;3376;42.664;23.346;2022-10-04T10:26:28;94983.69;;;18.97;nan
6680;BME280;3376;42.664;23.346;2022-10-04T10:29:24;94991.09;;;19.24;nan
6680;BME280;3376;42.664;23.346;2022-10-04T10:32:32;94978.44;;;19.39;nan
6680;BME280;3376;42.664;23.346;2022-10-04T10:35:15;94974.22;;;19.56;nan
6680;BME280;3376;42.664;23.346;2022-10-04T10:37:56;94991.91;;;19.97;nan
6680;BME280;3376;42.664;23.346;2022-10-04T10:40:44;94992.25;;;20.37;nan
6680;BME280;3376;42.664;23.346;2022-10-04T10:46:19;94991.00;;;19.92;nan
6680;BME280;3376;42.664;23.346;2022-10-04T10:49:04;94986.63;;;19.49;nan
6680;BME280;3376;42.664;23.346;2022-10-04T10:51:51;94993.13;;;19.65;nan
6680;BME280;3376;42.664;23.346;2022-10-04T10:54:44;94990.69;;;20.00;nan
6680;BME280;3376;42.664;23.346;2022-10-04T10:57:45;94993.50;;;20.34;nan
6680;BME280;3376;42.664;23.346;2022-10-04T11:00:21;94996.03;;;19.93;nan
6680;BME280;3376;42.664;23.346;2022-10-04T11:03:08;94981.72;;;19.53;nan
6680;BME280;3376;42.664;23.346;2022-10-04T11:06:06;94993.84;;;19.11;nan
6680;BME280;3376;42.664;23.346;2022-10-04T11:12:17;94991.06;;;18.57;nan
6680;BME280;3376;42.664;23.346;2022-10-04T11:15:08;94970.94;;;18.07;nan
6680;BME280;3376;42.664;23.346;2022-10-04T11:18:17;94982.78;;;17.78;nan
6680;BME280;3376;42.664;23.346;2022-10-04T11:27:21;94992.69;;;18.14;nan
6680;BME280;3376;42.664;23.346;2022-10-04T11:30:03;94994.44;;;18.26;nan
6680;BME280;3376;42.664;23.346;2022-10-04T11:39:00;94978.88;;;19.72;nan
6680;BME280;3376;42.664;23.346;2022-10-04T11:41:42;94997.50;;;20.37;nan
6680;BME280;3376;42.664;23.346;2022-10-04T11:44:37;94986.84;;;20.73;nan
6680;BME280;3376;42.664;23.346;2022-10-04T11:47:21;94987.56;;;20.80;nan
6680;BME280;3376;42.664;23.346;2022-10-04T11:50:12;94994.38;;;21.22;nan
6680;BME280;3376;42.664;23.346;2022-10-04T11:56:07;95001.88;;;20.43;nan
6680;BME280;3376;42.664;23.346;2022-10-04T11:58:58;94997.94;;;19.68;nan
6680;BME280;3376;42.664;23.346;2022-10-04T12:01:43;94998.31;;;19.29;nan
6680;BME280;3376;42.664;23.346;2022-10-04T12:04:31;94962.97;;;19.49;nan
6680;BME280;3376;42.664;23.346;2022-10-04T12:07:22;95000.41;;;19.63;nan
6680;BME280;3376;42.664;23.346;2022-10-04T12:09:58;94975.16;;;19.44;nan
6680;BME280;3376;42.664;23.346;2022-10-04T12:12:55;95004.34;;;19.36;nan
6680;BME280;3376;42.664;23.346;2022-10-04T12:15:45;94977.78;;;18.77;nan
6680;BME280;3376;42.664;23.346;2022-10-04T12:18:43;94997.97;;;18.76;nan
6680;BME280;3376;42.664;23.346;2022-10-04T12:21:42;94989.97;;;18.40;nan
6680;BME280;3376;42.664;23.346;2022-10-04T12:24:33;95001.03;;;18.42;nan
6680;BME280;3376;42.664;23.346;2022-10-04T12:27:31;94990.75;;;18.71;nan
6680;BME280;3376;42.664;23.346;2022-10-04T12:30:20;94993.03;;;18.86;nan
6680;BME280;3376;42.664;23.346;2022-10-04T12:33:03;94979.16;;;19.28;nan
6680;BME280;3376;42.664;23.346;2022-10-04T12:38:48;94867.25;;;19.03;nan
6680;BME280;3376;42.664;23.346;2022-10-04T12:41:35;95010.91;;;19.99;nan
6680;BME280;3376;42.664;23.346;2022-10-04T12:44:21;95010.53;;;20.32;nan
6680;BME280;3376;42.664;23.346;2022-10-04T12:47:00;95015.09;;;20.07;nan
6680;BME280;3376;42.664;23.346;2022-10-04T12:49:37;95008.66;;;20.03;nan
6680;BME280;3376;42.664;23.346;2022-10-04T12:52:11;94989.84;;;19.51;nan
6680;BME280;3376;42.664;23.346;2022-10-04T12:54:42;95007.63;;;19.31;nan
6680;BME280;3376;42.664;23.346;2022-10-04T12:57:36;95001.19;;;19.03;nan
6680;BME280;3376;42.664;23.346;2022-10-04T13:00:16;94983.19;;;18.82;nan
6680;BME280;3376;42.664;23.346;2022-10-04T13:06:07;95007.41;;;18.59;nan
6680;BME280;3376;42.664;23.346;2022-10-04T13:08:57;94988.88;;;18.79;nan
6680;BME280;3376;42.664;23.346;2022-10-04T13:11:54;94993.03;;;18.86;nan
6680;BME280;3376;42.664;23.346;2022-10-04T13:14:53;94997.69;;;18.84;nan
6680;BME280;3376;42.664;23.346;2022-10-04T13:17:37;94996.69;;;19.10;nan
6680;BME280;3376;42.664;23.346;2022-10-04T13:20:28;94977.06;;;19.12;nan
6680;BME280;3376;42.664;23.346;2022-10-04T13:23:02;94845.22;;;18.43;nan
6680;BME280;3376;42.664;23.346;2022-10-04T13:25:43;94995.00;;;19.15;nan
6680;BME280;3376;42.664;23.346;2022-10-04T13:28:22;94982.53;;;18.86;nan
6680;BME280;3376;42.664;23.346;2022-10-04T13:30:56;94985.59;;;18.58;nan
6680;BME280;3376;42.664;23.346;2022-10-04T13:33:33;94995.31;;;18.58;nan
6680;BME280;3376;42.664;23.346;2022-10-04T13:36:06;94987.63;;;18.56;nan
6680;BME280;3376;42.664;23.346;2022-10-04T13:38:51;94985.03;;;18.50;nan
6680;BME280;3376;42.664;23.346;2022-10-04T13:41:27;94993.41;;;18.65;nan
6680;BME280;3376;42.664;23.346;2022-10-04T13:44:25;94995.88;;;18.60;nan
6680;BME280;3376;42.664;23.346;2022-10-04T13:50:33;95000.88;;;18.68;nan
6680;BME280;3376;42.664;23.346;2022-10-04T13:53:12;95010.19;;;18.64;nan
6680;BME280;3376;42.664;23.346;2022-10-04T13:56:05;94994.44;;;18.64;nan
6680;BME280;3376;42.664;23.346;2022-10-04T13:58:56;95012.13;;;18.75;nan
6680;BME280;3376;42.664;23.346;2022-10-04T14:01:51;95014.63;;;18.26;nan
6680;BME280;3376;42.664;23.346;2022-10-04T14:04:47;95017.00;;;17.96;nan
6680;BME280;3376;42.664;23.346;2022-10-04T14:07:33;95015.09;;;17.72;nan
6680;BME280;3376;42.664;23.346;2022-10-04T14:13:37;95016.56;;;17.09;nan
6680;BME280;3376;42.664;23.346;2022-10-04T14:16:27;95029.50;;;16.85;nan
6680;BME280;3376;42.664;23.346;2022-10-04T14:19:33;95034.69;;;16.65;nan
6680;BME280;3376;42.664;23.346;2022-10-04T14:29:24;95040.53;;;16.67;nan
6680;BME280;3376;42.664;23.346;2022-10-04T14:35:00;95030.03;;;16.54;nan
6680;BME280;3376;42.664;23.346;2022-10-04T14:38:04;95038.53;;;16.76;nan
6680;BME280;3376;42.664;23.346;2022-10-04T14:47:19;95065.06;;;16.60;nan
6680;BME280;3376;42.664;23.346;2022-10-04T14:50:07;95066.22;;;16.44;nan
6680;BME280;3376;42.664;23.346;2022-10-04T14:52:53;95071.13;;;16.06;nan
6680;BME280;3376;42.664;23.346;2022-10-04T14:55:38;95061.75;;;15.78;nan
6680;BME280;3376;42.664;23.346;2022-10-04T14:58:18;95076.44;;;15.79;nan
6680;BME280;3376;42.664;23.346;2022-10-04T15:01:18;95068.81;;;15.84;nan
6680;BME280;3376;42.664;23.346;2022-10-04T15:03:58;95081.63;;;15.72;nan
6680;BME280;3376;42.664;23.346;2022-10-04T15:06:41;95092.06;;;15.72;nan
6680;BME280;3376;42.664;23.346;2022-10-04T15:09:43;95100.03;;;15.58;nan
6680;BME280;3376;42.664;23.346;2022-10-04T15:12:45;95088.75;;;15.51;nan
6680;BME280;3376;42.664;23.346;2022-10-04T15:15:30;95089.81;;;15.35;nan
6680;BME280;3376;42.664;23.346;2022-10-04T15:18:08;94776.81;;;13.42;nan
6680;BME280;3376;42.664;23.346;2022-10-04T15:20:49;95102.25;;;15.33;nan
6680;BME280;3376;42.664;23.346;2022-10-04T15:23:29;95103.09;;;15.12;nan
6680;BME280;3376;42.664;23.346;2022-10-04T15:26:04;95108.69;;;15.09;nan
6680;BME280;3376;42.664;23.346;2022-10-04T15:28:43;95109.38;;;14.97;nan
6680;BME280;3376;42.664;23.346;2022-10-04T15:31:20;95113.91;;;14.88;nan
6680;BME280;3376;42.664;23.346;2022-10-04T15:33:58;94964.91;;;13.86;nan
6680;BME280;3376;42.664;23.346;2022-10-04T15:36:47;95116.16;;;14.70;nan
6680;BME280;3376;42.664;23.346;2022-10-04T15:39:46;95111.28;;;14.67;nan
6680;BME280;3376;42.664;23.346;2022-10-04T15:42:22;95116.06;;;14.64;nan
6680;BME280;3376;42.664;23.346;2022-10-04T15:45:20;95126.88;;;14.61;nan
6680;BME280;3376;42.664;23.346;2022-10-04T15:48:04;95129.69;;;14.59;nan
6680;BME280;3376;42.664;23.346;2022-10-04T15:50:42;95130.66;;;14.37;nan
6680;BME280;3376;42.664;23.346;2022-10-04T15:56:35;95123.63;;;14.23;nan
6680;BME280;3376;42.664;23.346;2022-10-04T15:59:30;95138.81;;;14.19;nan
6680;BME280;3376;42.664;23.346;2022-10-04T16:02:25;95136.69;;;14.08;nan
6680;BME280;3376;42.664;23.346;2022-10-04T16:05:08;95138.22;;;14.03;nan
6680;BME280;3376;42.664;23.346;2022-10-04T16:08:02;95149.25;;;13.90;nan
6680;BME280;3376;42.664;23.346;2022-10-04T16:13:40;95152.06;;;13.74;nan
6680;BME280;3376;42.664;23.346;2022-10-04T16:16:30;95152.53;;;13.78;nan